Time;durP1;ratioP1;P1;durP2;ratioP2;P2;SDS_P1;SDS_P2;PMS_P1;PMS_P2;Temp;Humidity;BMP_temperature;BMP_pressure;BME280_temperature;BME280_humidity;BME280_pressure;Samples;Min_cycle;Max_cycle;Signal;HPM_P1;HPM_P2
2024/04/25 00:00:56;;;;;;;198.05;54.08;;;;;;;;;;5350691;26;20378;-67
2024/04/25 00:03:24;;;;;;;196.98;52.05;;;;;;;;;;5341733;26;20373;-67
2024/04/25 00:05:53;;;;;;;197.38;53.92;;;;;;;;;;5342302;26;20846;-68
2024/04/25 00:08:24;;;;;;;196.90;53.22;;;;;;;;;;5349476;26;20340;-68
2024/04/25 00:10:54;;;;;;;197.70;52.92;;;;;;;;;;5350137;26;20369;-67
2024/04/25 00:13:26;;;;;;;197.90;53.28;;;;;;;;;;5341542;26;20691;-68
2024/04/25 00:15:55;;;;;;;197.02;52.05;;;;;;;;;;5336098;26;20345;-68
2024/04/25 00:18:23;;;;;;;197.20;53.78;;;;;;;;;;5341871;26;20432;-68
2024/04/25 00:20:52;;;;;;;198.85;54.25;;;;;;;;;;5345720;26;20384;-68
2024/04/25 00:23:21;;;;;;;198.90;54.60;;;;;;;;;;5343907;26;20963;-68
2024/04/25 00:25:52;;;;;;;196.15;52.40;;;;;;;;;;5344668;26;20391;-68
2024/04/25 00:28:21;;;;;;;196.25;51.75;;;;;;;;;;5351844;26;20435;-68
2024/04/25 00:30:50;;;;;;;197.52;52.95;;;;;;;;;;5352421;26;20352;-68
2024/04/25 00:33:19;;;;;;;197.60;53.28;;;;;;;;;;5344569;26;20369;-67
2024/04/25 00:35:48;;;;;;;198.17;54.17;;;;;;;;;;5345163;26;20408;-67
2024/04/25 00:38:17;;;;;;;197.87;53.60;;;;;;;;;;5341096;26;20336;-67
2024/04/25 00:40:46;;;;;;;196.95;53.25;;;;;;;;;;5350457;26;20367;-67
2024/04/25 00:43:17;;;;;;;198.30;54.57;;;;;;;;;;5344725;26;20349;-67
2024/04/25 00:45:47;;;;;;;197.55;52.47;;;;;;;;;;5344973;26;20443;-67
2024/04/25 00:48:16;;;;;;;197.25;53.97;;;;;;;;;;5351442;26;20340;-68
2024/04/25 00:50:45;;;;;;;199.00;55.17;;;;;;;;;;5345679;26;20877;-69
2024/04/25 00:53:15;;;;;;;200.02;55.22;;;;;;;;;;5344240;26;20381;-68
2024/04/25 00:55:43;;;;;;;198.68;53.95;;;;;;;;;;5344813;26;20341;-68
2024/04/25 00:58:13;;;;;;;197.35;53.97;;;;;;;;;;5344566;26;20341;-68
2024/04/25 01:00:46;;;;;;;197.77;53.35;;;;;;;;;;5343990;26;20716;-68
2024/04/25 01:03:17;;;;;;;199.30;55.03;;;;;;;;;;5339938;26;20480;-68
2024/04/25 01:05:47;;;;;;;197.50;53.75;;;;;;;;;;5347589;26;20349;-68
2024/04/25 01:08:16;;;;;;;199.82;55.75;;;;;;;;;;5344443;26;20768;-68
2024/04/25 01:10:45;;;;;;;199.35;55.80;;;;;;;;;;5349775;26;20428;-68
2024/04/25 01:13:14;;;;;;;197.65;53.35;;;;;;;;;;5344113;26;20439;-68
2024/04/25 01:15:45;;;;;;;199.57;56.40;;;;;;;;;;5344535;26;20340;-68
2024/04/25 01:18:16;;;;;;;196.85;52.45;;;;;;;;;;5348711;26;20380;-68
2024/04/25 01:20:44;;;;;;;198.50;53.90;;;;;;;;;;5348254;26;20390;-69
2024/04/25 01:23:14;;;;;;;198.85;55.30;;;;;;;;;;5342043;26;20341;-68
2024/04/25 01:25:46;;;;;;;199.30;55.53;;;;;;;;;;5353213;26;20338;-68
2024/04/25 01:28:16;;;;;;;197.90;53.92;;;;;;;;;;5344286;26;20469;-68
2024/04/25 01:30:46;;;;;;;197.25;52.03;;;;;;;;;;5349739;26;20345;-68
2024/04/25 01:33:15;;;;;;;200.07;56.28;;;;;;;;;;5343822;26;20340;-68
2024/04/25 01:35:45;;;;;;;198.18;53.88;;;;;;;;;;5343594;26;20345;-68
2024/04/25 01:38:14;;;;;;;198.23;53.83;;;;;;;;;;5343956;26;20341;-67
2024/04/25 01:40:45;;;;;;;198.68;54.25;;;;;;;;;;5346184;26;20379;-68
2024/04/25 01:43:14;;;;;;;198.43;54.05;;;;;;;;;;5339042;26;20340;-68
2024/04/25 01:45:42;;;;;;;198.80;53.97;;;;;;;;;;5350853;26;20698;-68
2024/04/25 01:48:11;;;;;;;198.15;54.33;;;;;;;;;;5344121;26;20925;-68
2024/04/25 01:50:40;;;;;;;199.38;55.50;;;;;;;;;;5344814;26;20408;-68
2024/04/25 01:53:08;;;;;;;200.77;57.40;;;;;;;;;;5343705;26;20720;-69
2024/04/25 01:55:38;;;;;;;201.25;57.35;;;;;;;;;;5342863;26;20396;-68
2024/04/25 01:58:09;;;;;;;201.00;57.15;;;;;;;;;;5344080;26;20349;-68
2024/04/25 02:00:38;;;;;;;199.55;56.55;;;;;;;;;;5344977;26;20340;-68
2024/04/25 02:03:07;;;;;;;199.90;56.78;;;;;;;;;;5344035;26;20466;-68
2024/04/25 02:05:35;;;;;;;200.23;56.88;;;;;;;;;;5349652;26;20428;-69
2024/04/25 02:08:04;;;;;;;200.02;56.72;;;;;;;;;;5336835;26;20345;-69
2024/04/25 02:10:32;;;;;;;199.98;56.30;;;;;;;;;;5346133;26;20368;-69
2024/04/25 02:13:01;;;;;;;199.80;56.00;;;;;;;;;;5343670;26;20341;-69
2024/04/25 02:15:33;;;;;;;200.30;56.65;;;;;;;;;;5343533;26;20340;-68
2024/04/25 02:18:01;;;;;;;199.55;55.90;;;;;;;;;;5343858;26;20356;-69
2024/04/25 02:26:04;;;;;;;198.30;54.58;;;;;;;;;;5352755;26;20373;-69
2024/04/25 02:28:32;;;;;;;200.27;57.03;;;;;;;;;;5344968;26;20337;-68
2024/04/25 02:31:04;;;;;;;198.40;54.65;;;;;;;;;;5350049;26;20341;-68
2024/04/25 02:33:33;;;;;;;199.13;55.42;;;;;;;;;;5343049;26;20411;-69
2024/04/25 02:36:01;;;;;;;196.50;52.72;;;;;;;;;;5343413;26;20345;-69
2024/04/25 02:38:30;;;;;;;198.73;54.22;;;;;;;;;;5344136;26;20649;-69
2024/04/25 02:40:59;;;;;;;198.18;54.38;;;;;;;;;;5345391;26;20473;-68
2024/04/25 02:43:27;;;;;;;197.45;52.58;;;;;;;;;;5346452;26;20373;-69
2024/04/25 02:45:56;;;;;;;196.67;52.97;;;;;;;;;;5345978;26;20337;-69
2024/04/25 02:48:25;;;;;;;197.27;52.58;;;;;;;;;;5343279;26;20344;-68
2024/04/25 02:50:53;;;;;;;198.77;54.75;;;;;;;;;;5344791;26;20341;-68
2024/04/25 02:53:20;;;;;;;198.52;54.33;;;;;;;;;;5345514;26;20407;-68
2024/04/25 02:55:48;;;;;;;197.07;53.13;;;;;;;;;;5344280;26;20370;-68
2024/04/25 02:58:14;;;;;;;197.50;53.33;;;;;;;;;;5343130;26;20340;-68
2024/04/25 03:00:43;;;;;;;197.85;53.58;;;;;;;;;;5343713;26;20830;-69
2024/04/25 03:03:09;;;;;;;197.90;54.10;;;;;;;;;;5336814;26;20439;-68
2024/04/25 03:05:45;;;;;;;198.93;54.85;;;;;;;;;;5336299;26;20882;-69
2024/04/25 03:08:11;;;;;;;199.23;54.38;;;;;;;;;;5344802;26;20496;-68
2024/04/25 03:10:40;;;;;;;198.57;54.03;;;;;;;;;;5347182;26;20375;-68
2024/04/25 03:13:06;;;;;;;198.50;54.78;;;;;;;;;;5343341;26;20400;-68
2024/04/25 03:15:34;;;;;;;197.60;53.25;;;;;;;;;;5343375;26;20376;-67
2024/04/25 03:18:01;;;;;;;197.53;53.17;;;;;;;;;;5343397;26;20551;-67
2024/04/25 03:20:30;;;;;;;198.80;54.63;;;;;;;;;;5347669;26;20357;-68
2024/04/25 03:22:59;;;;;;;199.82;56.20;;;;;;;;;;5342865;26;20382;-68
2024/04/25 03:25:27;;;;;;;199.80;56.25;;;;;;;;;;5350031;26;20345;-67
2024/04/25 03:27:53;;;;;;;199.82;56.42;;;;;;;;;;5349549;26;20334;-68
2024/04/25 03:30:22;;;;;;;199.38;55.65;;;;;;;;;;5342751;26;20392;-68
2024/04/25 03:32:48;;;;;;;200.10;56.88;;;;;;;;;;5342888;26;20341;-68
2024/04/25 03:35:17;;;;;;;198.70;55.00;;;;;;;;;;5343148;26;20912;-68
2024/04/25 03:37:45;;;;;;;198.25;54.03;;;;;;;;;;5347250;26;20385;-68
2024/04/25 03:40:17;;;;;;;197.73;53.45;;;;;;;;;;5343802;26;20436;-68
2024/04/25 03:42:45;;;;;;;198.23;54.15;;;;;;;;;;5337091;26;20341;-68
2024/04/25 03:45:14;;;;;;;196.45;52.20;;;;;;;;;;5348970;26;20381;-67
2024/04/25 03:47:43;;;;;;;197.20;53.05;;;;;;;;;;5348316;26;20709;-64
2024/04/25 03:50:11;;;;;;;197.88;53.13;;;;;;;;;;5342914;26;20365;-66
2024/04/25 03:52:40;;;;;;;197.75;53.58;;;;;;;;;;5348257;26;20364;-66
2024/04/25 03:55:09;;;;;;;198.18;54.10;;;;;;;;;;5343024;26;20340;-66
2024/04/25 03:57:40;;;;;;;198.70;54.90;;;;;;;;;;5342532;26;20679;-66
2024/04/25 04:00:10;;;;;;;196.82;53.33;;;;;;;;;;5341761;26;20400;-66
2024/04/25 04:02:39;;;;;;;198.15;54.20;;;;;;;;;;5341051;26;20336;-67
2024/04/25 04:05:08;;;;;;;197.35;52.78;;;;;;;;;;5348418;26;20344;-67
2024/04/25 04:07:37;;;;;;;199.55;55.72;;;;;;;;;;5341358;26;20333;-66
2024/04/25 04:10:05;;;;;;;197.43;53.60;;;;;;;;;;5335941;26;20444;-66
2024/04/25 04:12:34;;;;;;;197.98;54.22;;;;;;;;;;5342132;26;20360;-67
2024/04/25 04:15:06;;;;;;;197.63;53.65;;;;;;;;;;5341808;26;20493;-67
2024/04/25 04:17:35;;;;;;;197.88;54.28;;;;;;;;;;5341939;26;20722;-67
2024/04/25 04:20:03;;;;;;;197.40;52.75;;;;;;;;;;5341953;26;20344;-67
2024/04/25 04:22:32;;;;;;;197.73;54.05;;;;;;;;;;5341477;26;20385;-67
2024/04/25 04:25:00;;;;;;;197.63;53.35;;;;;;;;;;5348509;26;20378;-67
2024/04/25 04:27:29;;;;;;;197.32;53.20;;;;;;;;;;5341949;26;20356;-67
2024/04/25 04:29:58;;;;;;;196.68;52.05;;;;;;;;;;5341946;26;20786;-66
2024/04/25 04:32:29;;;;;;;195.68;51.05;;;;;;;;;;5341829;26;20352;-66
2024/04/25 04:34:58;;;;;;;196.43;52.53;;;;;;;;;;5335245;26;20345;-66
2024/04/25 04:37:26;;;;;;;197.85;53.55;;;;;;;;;;5341574;26;20380;-66
2024/04/25 04:39:55;;;;;;;198.45;54.35;;;;;;;;;;5341709;26;20353;-66
2024/04/25 04:42:24;;;;;;;197.60;52.83;;;;;;;;;;5341522;26;20909;-66
2024/04/25 04:44:52;;;;;;;198.00;54.47;;;;;;;;;;5347924;26;20341;-67
2024/04/25 04:47:21;;;;;;;197.98;54.17;;;;;;;;;;5341055;26;20372;-66
2024/04/25 04:49:52;;;;;;;197.07;52.93;;;;;;;;;;5341682;26;20388;-66
2024/04/25 04:52:21;;;;;;;199.48;55.88;;;;;;;;;;5341055;26;20380;-66
2024/04/25 04:54:50;;;;;;;196.98;53.30;;;;;;;;;;5341166;26;20349;-66
2024/04/25 04:57:19;;;;;;;197.13;52.92;;;;;;;;;;5341235;26;20731;-66
2024/04/25 04:59:47;;;;;;;198.15;53.97;;;;;;;;;;5341217;26;20953;-66
2024/04/25 05:02:16;;;;;;;196.55;52.65;;;;;;;;;;5335337;26;20345;-67
2024/04/25 05:04:45;;;;;;;197.93;53.38;;;;;;;;;;5347552;26;20380;-67
2024/04/25 05:07:16;;;;;;;198.17;53.57;;;;;;;;;;5340838;26;20774;-67
2024/04/25 05:09:44;;;;;;;198.10;53.95;;;;;;;;;;5341250;26;20667;-67
2024/04/25 05:12:13;;;;;;;199.35;55.28;;;;;;;;;;5343179;26;20388;-67
2024/04/25 05:14:42;;;;;;;197.95;53.53;;;;;;;;;;5341110;26;20353;-67
2024/04/25 05:17:10;;;;;;;195.70;51.43;;;;;;;;;;5345125;26;20890;-66
2024/04/25 05:19:39;;;;;;;196.63;52.00;;;;;;;;;;5344848;26;20336;-67
2024/04/25 05:22:08;;;;;;;197.10;53.50;;;;;;;;;;5344708;26;20364;-66
2024/04/25 05:24:39;;;;;;;197.37;53.70;;;;;;;;;;5351251;26;20439;-67
2024/04/25 05:27:08;;;;;;;196.45;52.78;;;;;;;;;;5337476;26;20340;-67
2024/04/25 05:29:37;;;;;;;194.82;51.30;;;;;;;;;;5343388;26;20345;-67
2024/04/25 05:32:05;;;;;;;196.82;53.13;;;;;;;;;;5344469;26;20395;-67
2024/04/25 05:34:37;;;;;;;196.38;52.92;;;;;;;;;;5343752;26;20488;-67
2024/04/25 05:37:05;;;;;;;196.60;53.95;;;;;;;;;;5344480;26;20473;-67
2024/04/25 05:39:34;;;;;;;197.45;54.67;;;;;;;;;;5344197;26;20333;-67
2024/04/25 05:42:05;;;;;;;197.45;54.08;;;;;;;;;;5344307;26;20698;-67
2024/04/25 05:44:34;;;;;;;195.80;52.67;;;;;;;;;;5350782;26;20386;-67
2024/04/25 05:47:03;;;;;;;195.90;52.78;;;;;;;;;;5344003;26;20372;-67
2024/04/25 05:49:32;;;;;;;195.00;50.97;;;;;;;;;;5344090;26;20379;-67
2024/04/25 05:52:01;;;;;;;196.57;53.28;;;;;;;;;;5337398;26;20337;-67
2024/04/25 05:54:29;;;;;;;196.02;53.63;;;;;;;;;;5341056;26;20427;-67
2024/04/25 05:56:58;;;;;;;195.60;53.28;;;;;;;;;;5344524;26;20885;-66
2024/04/25 05:59:29;;;;;;;195.32;52.85;;;;;;;;;;5344205;26;20361;-67
2024/04/25 06:01:58;;;;;;;193.57;53.13;;;;;;;;;;5344140;26;20377;-67
2024/04/25 06:04:27;;;;;;;189.43;54.63;;;;;;;;;;5350197;26;20392;-67
2024/04/25 06:06:56;;;;;;;195.43;54.43;;;;;;;;;;5344062;26;20788;-66
2024/04/25 06:09:24;;;;;;;195.32;53.70;;;;;;;;;;5343561;26;20376;-66
2024/04/25 06:11:53;;;;;;;195.20;53.65;;;;;;;;;;5343911;26;20792;-67
2024/04/25 06:14:23;;;;;;;194.40;52.22;;;;;;;;;;5343331;26;20341;-66
2024/04/25 06:16:54;;;;;;;194.60;52.53;;;;;;;;;;5343910;26;20352;-66
2024/04/25 06:19:23;;;;;;;193.48;50.65;;;;;;;;;;5339058;26;20389;-66
2024/04/25 06:21:52;;;;;;;194.52;52.65;;;;;;;;;;5343575;26;20340;-66
2024/04/25 06:24:21;;;;;;;194.07;50.97;;;;;;;;;;5350144;26;20396;-66
2024/04/25 06:26:50;;;;;;;196.43;53.47;;;;;;;;;;5343692;26;20329;-66
2024/04/25 06:29:18;;;;;;;196.10;53.10;;;;;;;;;;5343496;26;20336;-66
2024/04/25 06:31:47;;;;;;;200.20;57.55;;;;;;;;;;5343388;26;20693;-66
2024/04/25 06:34:19;;;;;;;199.38;57.03;;;;;;;;;;5343366;26;20383;-66
2024/04/25 06:36:48;;;;;;;198.32;55.35;;;;;;;;;;5343613;26;20431;-66
2024/04/25 06:39:17;;;;;;;199.70;56.78;;;;;;;;;;5343764;26;20376;-67
2024/04/25 06:41:45;;;;;;;201.20;57.72;;;;;;;;;;5343454;26;20336;-66
2024/04/25 06:44:14;;;;;;;199.60;56.78;;;;;;;;;;5343275;26;20671;-66
2024/04/25 06:46:43;;;;;;;201.60;60.25;;;;;;;;;;5343240;26;20357;-67
2024/04/25 06:49:12;;;;;;;200.85;59.15;;;;;;;;;;5343269;26;20377;-66
2024/04/25 06:51:43;;;;;;;202.23;59.35;;;;;;;;;;5343235;26;20368;-67
2024/04/25 06:54:12;;;;;;;200.13;56.78;;;;;;;;;;5342689;26;20432;-66
2024/04/25 06:56:41;;;;;;;200.13;57.47;;;;;;;;;;5343042;26;20337;-65
2024/04/25 06:59:10;;;;;;;202.02;59.90;;;;;;;;;;5344062;26;20349;-67
2024/04/25 07:01:40;;;;;;;203.48;61.67;;;;;;;;;;5343349;26;20901;-66
2024/04/25 07:04:08;;;;;;;201.68;60.20;;;;;;;;;;5349558;26;20451;-66
2024/04/25 07:06:37;;;;;;;197.85;56.28;;;;;;;;;;5343081;26;20348;-66
2024/04/25 07:09:08;;;;;;;204.30;63.87;;;;;;;;;;5342798;26;20480;-66
2024/04/25 07:11:37;;;;;;;203.10;61.93;;;;;;;;;;5341695;26;20345;-66
2024/04/25 07:14:06;;;;;;;201.18;58.60;;;;;;;;;;5342574;26;20344;-66
2024/04/25 07:16:35;;;;;;;199.75;59.05;;;;;;;;;;5342691;26;20348;-66
2024/04/25 07:19:03;;;;;;;197.87;58.23;;;;;;;;;;5343133;26;20332;-66
2024/04/25 07:21:33;;;;;;;198.02;57.67;;;;;;;;;;5345661;26;20341;-66
2024/04/25 07:24:03;;;;;;;201.57;60.07;;;;;;;;;;5345180;26;20720;-66
2024/04/25 07:26:34;;;;;;;203.57;62.05;;;;;;;;;;5342697;26;20885;-66
2024/04/25 07:29:03;;;;;;;202.03;59.47;;;;;;;;;;5342855;26;20349;-66
2024/04/25 07:31:32;;;;;;;202.95;60.05;;;;;;;;;;5342741;26;20336;-66
2024/04/25 07:34:00;;;;;;;202.60;60.53;;;;;;;;;;5334759;26;20437;-67
2024/04/25 07:36:35;;;;;;;202.52;61.13;;;;;;;;;;5342600;26;20373;-66
2024/04/25 07:39:04;;;;;;;198.60;57.30;;;;;;;;;;5342564;26;20473;-67
2024/04/25 07:41:35;;;;;;;202.30;62.03;;;;;;;;;;5345716;26;20344;-66
2024/04/25 07:44:04;;;;;;;201.85;60.72;;;;;;;;;;5344789;26;20380;-66
2024/04/25 07:46:32;;;;;;;200.60;59.90;;;;;;;;;;5342137;26;20345;-66
2024/04/25 07:49:02;;;;;;;203.50;61.27;;;;;;;;;;5342586;26;20454;-66
2024/04/25 07:51:31;;;;;;;203.45;60.88;;;;;;;;;;5342434;26;20337;-66
2024/04/25 07:54:00;;;;;;;203.10;62.20;;;;;;;;;;5335275;26;20341;-66
2024/04/25 07:56:28;;;;;;;202.60;60.38;;;;;;;;;;5338318;26;20332;-67
2024/04/25 07:58:59;;;;;;;198.73;55.33;;;;;;;;;;5342459;26;20368;-67
2024/04/25 08:01:28;;;;;;;199.10;56.25;;;;;;;;;;5344236;26;20403;-67
2024/04/25 08:03:57;;;;;;;201.93;60.80;;;;;;;;;;5346099;26;20344;-67
2024/04/25 08:06:25;;;;;;;202.27;61.45;;;;;;;;;;5342258;26;20360;-67
2024/04/25 08:08:54;;;;;;;202.77;59.95;;;;;;;;;;5342322;26;20846;-67
2024/04/25 08:11:23;;;;;;;197.82;55.63;;;;;;;;;;5342803;26;20336;-66
2024/04/25 08:13:51;;;;;;;200.35;58.67;;;;;;;;;;5343593;26;20341;-66
2024/04/25 08:16:23;;;;;;;199.13;57.15;;;;;;;;;;5342420;26;20336;-66
2024/04/25 08:18:51;;;;;;;201.55;58.88;;;;;;;;;;5341961;26;20341;-66
2024/04/25 08:21:20;;;;;;;205.07;63.80;;;;;;;;;;5335962;26;20692;-66
2024/04/25 08:23:49;;;;;;;204.98;66.05;;;;;;;;;;5341511;26;20376;-66
2024/04/25 08:26:17;;;;;;;204.77;65.85;;;;;;;;;;5342050;26;20376;-67
2024/04/25 08:28:46;;;;;;;203.05;65.03;;;;;;;;;;5341953;26;20333;-66
2024/04/25 08:31:15;;;;;;;203.77;66.00;;;;;;;;;;5341802;26;20346;-66
2024/04/25 08:33:46;;;;;;;203.07;65.40;;;;;;;;;;5341445;26;20333;-67
2024/04/25 08:36:15;;;;;;;203.35;66.32;;;;;;;;;;5341690;26;20393;-67
2024/04/25 08:38:44;;;;;;;204.20;67.22;;;;;;;;;;5341308;26;20325;-67
2024/04/25 08:41:13;;;;;;;204.30;67.25;;;;;;;;;;5341711;26;20348;-67
2024/04/25 08:43:44;;;;;;;203.48;66.90;;;;;;;;;;5348241;26;20352;-67
2024/04/25 08:46:16;;;;;;;204.73;68.25;;;;;;;;;;5337048;26;20348;-67
2024/04/25 08:48:47;;;;;;;204.98;67.88;;;;;;;;;;5344460;26;20379;-67
2024/04/25 08:51:16;;;;;;;203.35;63.47;;;;;;;;;;5344737;26;20557;-67
2024/04/25 08:53:46;;;;;;;202.60;62.15;;;;;;;;;;5344119;26;20341;-67
2024/04/25 08:56:16;;;;;;;200.10;59.72;;;;;;;;;;5344894;26;20337;-67
2024/04/25 08:58:46;;;;;;;201.00;60.67;;;;;;;;;;5344678;26;20699;-67
2024/04/25 09:01:15;;;;;;;201.02;61.08;;;;;;;;;;5352056;26;20846;-67
2024/04/25 09:03:44;;;;;;;204.05;63.10;;;;;;;;;;5343847;26;20415;-67
2024/04/25 09:06:15;;;;;;;197.57;56.53;;;;;;;;;;5338223;26;20365;-67
2024/04/25 09:08:44;;;;;;;198.23;58.10;;;;;;;;;;5343673;26;20333;-66
2024/04/25 09:11:21;;;;;;;199.27;60.20;;;;;;;;;;5345136;26;20377;-66
2024/04/25 09:13:53;;;;;;;204.27;65.90;;;;;;;;;;5341934;26;20379;-67
2024/04/25 09:16:22;;;;;;;202.55;62.30;;;;;;;;;;5344586;26;20344;-67
2024/04/25 09:18:51;;;;;;;203.07;64.60;;;;;;;;;;5345153;26;20384;-67
2024/04/25 09:21:22;;;;;;;204.40;65.60;;;;;;;;;;5345078;26;20400;-67
2024/04/25 09:23:51;;;;;;;198.30;58.75;;;;;;;;;;5349820;26;20405;-67
2024/04/25 09:26:20;;;;;;;196.57;58.83;;;;;;;;;;5344700;26;20371;-67
2024/04/25 09:28:48;;;;;;;200.15;60.67;;;;;;;;;;5339750;26;20337;-67
2024/04/25 09:31:17;;;;;;;201.20;63.10;;;;;;;;;;5344598;26;20341;-67
2024/04/25 09:33:46;;;;;;;198.60;59.42;;;;;;;;;;5343909;26;20722;-67
2024/04/25 09:36:15;;;;;;;202.50;63.30;;;;;;;;;;5344718;26;20381;-67
2024/04/25 09:38:47;;;;;;;203.57;65.13;;;;;;;;;;5344109;26;20644;-67
2024/04/25 09:41:15;;;;;;;203.77;66.45;;;;;;;;;;5351087;26;20352;-67
2024/04/25 09:43:44;;;;;;;204.30;67.22;;;;;;;;;;5343737;26;20340;-67
2024/04/25 09:46:16;;;;;;;202.10;61.72;;;;;;;;;;5337588;26;20340;-67
2024/04/25 09:48:46;;;;;;;203.27;63.13;;;;;;;;;;5343801;26;21189;-67
2024/04/25 09:51:17;;;;;;;201.82;61.30;;;;;;;;;;5344287;26;20341;-67
2024/04/25 09:53:51;;;;;;;203.87;63.67;;;;;;;;;;5343722;26;20790;-66
2024/04/25 09:56:22;;;;;;;202.23;64.33;;;;;;;;;;5344341;26;20456;-66
2024/04/25 09:58:53;;;;;;;205.50;70.43;;;;;;;;;;5343011;26;20348;-67
2024/04/25 10:01:23;;;;;;;205.00;71.10;;;;;;;;;;5350907;26;20459;-67
2024/04/25 10:03:51;;;;;;;208.02;75.95;;;;;;;;;;5337694;26;20865;-67
2024/04/25 10:06:20;;;;;;;207.05;75.30;;;;;;;;;;5344032;26;20774;-67
2024/04/25 10:08:52;;;;;;;204.93;69.65;;;;;;;;;;5348279;26;20359;-67
2024/04/25 10:11:21;;;;;;;205.27;70.85;;;;;;;;;;5344013;26;20476;-67
2024/04/25 10:13:51;;;;;;;204.43;68.60;;;;;;;;;;5340781;26;20340;-67
2024/04/25 10:16:20;;;;;;;205.75;68.72;;;;;;;;;;5343835;26;20321;-67
2024/04/25 10:18:52;;;;;;;206.00;67.72;;;;;;;;;;5343542;26;20352;-67
2024/04/25 10:21:20;;;;;;;205.13;67.68;;;;;;;;;;5336958;26;20344;-68
2024/04/25 10:23:53;;;;;;;204.93;66.38;;;;;;;;;;5342991;26;20329;-68
2024/04/25 10:26:22;;;;;;;204.13;65.28;;;;;;;;;;5343819;26;20425;-68
2024/04/25 10:28:58;;;;;;;204.80;66.82;;;;;;;;;;5339333;26;20325;-68
2024/04/25 10:31:34;;;;;;;204.30;65.10;;;;;;;;;;5343363;26;21073;-65
2024/04/25 10:34:02;;;;;;;202.30;64.88;;;;;;;;;;5337011;26;20337;-68
2024/04/25 10:36:31;;;;;;;204.25;67.30;;;;;;;;;;5338906;26;20419;-68
2024/04/25 10:39:02;;;;;;;204.15;68.05;;;;;;;;;;5343225;26;20368;-68
2024/04/25 10:41:35;;;;;;;205.05;68.72;;;;;;;;;;5350362;26;20345;-68
2024/04/25 10:44:04;;;;;;;204.25;66.72;;;;;;;;;;5343084;26;20348;-65
2024/04/25 10:46:33;;;;;;;203.80;65.70;;;;;;;;;;5343016;26;20340;-66
2024/04/25 10:49:01;;;;;;;205.17;66.57;;;;;;;;;;5343354;26;20485;-66
2024/04/25 10:51:30;;;;;;;203.32;64.93;;;;;;;;;;5342933;26;20336;-66
2024/04/25 10:53:59;;;;;;;203.77;64.70;;;;;;;;;;5342836;26;20446;-67
2024/04/25 10:56:30;;;;;;;204.30;65.78;;;;;;;;;;5343011;26;20392;-66
2024/04/25 10:58:59;;;;;;;205.02;67.45;;;;;;;;;;5337922;26;20344;-66
2024/04/25 11:01:28;;;;;;;203.20;63.88;;;;;;;;;;5350163;26;20333;-66
2024/04/25 11:03:57;;;;;;;205.48;67.50;;;;;;;;;;5342616;26;20345;-66
2024/04/25 11:06:26;;;;;;;204.07;65.32;;;;;;;;;;5343043;26;20683;-66
2024/04/25 11:08:55;;;;;;;203.07;62.33;;;;;;;;;;5341486;26;20345;-66
2024/04/25 11:11:24;;;;;;;206.80;69.80;;;;;;;;;;5342810;26;20669;-66
2024/04/25 11:13:55;;;;;;;209.65;75.97;;;;;;;;;;5340031;26;20427;-67
2024/04/25 11:16:24;;;;;;;206.98;70.78;;;;;;;;;;5342549;26;20344;-67
2024/04/25 11:18:53;;;;;;;207.07;73.07;;;;;;;;;;5342154;26;20341;-66
2024/04/25 11:21:22;;;;;;;207.70;74.28;;;;;;;;;;5342570;26;20344;-67
2024/04/25 11:23:51;;;;;;;207.43;75.72;;;;;;;;;;5341822;26;20710;-66
2024/04/25 11:26:21;;;;;;;206.50;73.50;;;;;;;;;;5342580;26;20410;-67
2024/04/25 11:28:50;;;;;;;205.55;70.57;;;;;;;;;;5342609;26;20447;-67
2024/04/25 11:31:21;;;;;;;206.13;72.28;;;;;;;;;;5342905;26;20530;-67
2024/04/25 11:33:50;;;;;;;207.73;73.78;;;;;;;;;;5341995;26;20341;-67
2024/04/25 11:36:25;;;;;;;205.77;68.43;;;;;;;;;;5342569;26;20838;-66
2024/04/25 11:38:54;;;;;;;205.02;68.35;;;;;;;;;;5342149;26;20370;-67
2024/04/25 11:41:23;;;;;;;205.30;68.10;;;;;;;;;;5342722;26;20340;-66
2024/04/25 11:43:52;;;;;;;205.95;68.63;;;;;;;;;;5348329;26;20392;-66
2024/04/25 11:46:23;;;;;;;207.77;69.25;;;;;;;;;;5342370;26;20329;-66
2024/04/25 11:48:53;;;;;;;204.85;66.70;;;;;;;;;;5338813;26;20340;-66
2024/04/25 11:51:22;;;;;;;204.13;64.53;;;;;;;;;;5342434;26;20337;-66
2024/04/25 11:53:51;;;;;;;202.60;62.38;;;;;;;;;;5341855;26;20336;-67
2024/04/25 11:56:19;;;;;;;203.20;63.78;;;;;;;;;;5342023;26;20702;-67
2024/04/25 11:58:48;;;;;;;204.05;66.90;;;;;;;;;;5342282;26;20376;-67
2024/04/25 12:01:17;;;;;;;204.77;68.70;;;;;;;;;;5348896;26;20372;-67
2024/04/25 12:03:48;;;;;;;204.80;68.32;;;;;;;;;;5341843;26;20349;-67
2024/04/25 12:06:18;;;;;;;204.95;68.60;;;;;;;;;;5347635;26;20341;-67
2024/04/25 12:08:47;;;;;;;204.45;66.63;;;;;;;;;;5341976;26;20388;-67
2024/04/25 12:11:16;;;;;;;205.63;69.97;;;;;;;;;;5341998;26;20333;-67
2024/04/25 12:13:46;;;;;;;204.63;67.60;;;;;;;;;;5341977;26;20345;-67
2024/04/25 12:16:15;;;;;;;204.48;67.25;;;;;;;;;;5342193;26;20381;-67
2024/04/25 12:18:44;;;;;;;205.57;68.32;;;;;;;;;;5345898;26;20356;-67
2024/04/25 12:21:15;;;;;;;203.80;65.55;;;;;;;;;;5346308;26;20695;-67
2024/04/25 12:23:44;;;;;;;206.57;69.90;;;;;;;;;;5344360;26;20337;-67
2024/04/25 12:26:13;;;;;;;205.18;69.43;;;;;;;;;;5345312;26;20349;-67
2024/04/25 12:28:43;;;;;;;207.60;72.63;;;;;;;;;;5342360;26;20340;-67
2024/04/25 12:31:12;;;;;;;205.93;70.95;;;;;;;;;;5339256;26;20341;-67
2024/04/25 12:33:42;;;;;;;204.55;66.57;;;;;;;;;;5344550;26;20345;-67
2024/04/25 12:36:11;;;;;;;204.85;66.72;;;;;;;;;;5345013;26;20337;-67
2024/04/25 12:38:42;;;;;;;205.15;68.47;;;;;;;;;;5347405;26;20372;-67
2024/04/25 12:41:11;;;;;;;204.77;67.18;;;;;;;;;;5347920;26;20329;-67
2024/04/25 12:43:39;;;;;;;206.50;70.40;;;;;;;;;;5344521;26;20457;-67
2024/04/25 12:46:08;;;;;;;204.85;69.00;;;;;;;;;;5345160;26;20337;-67
2024/04/25 12:48:37;;;;;;;206.43;70.75;;;;;;;;;;5344768;26;20344;-67
2024/04/25 12:51:05;;;;;;;205.35;70.50;;;;;;;;;;5344805;26;20414;-67
2024/04/25 12:53:34;;;;;;;204.65;69.32;;;;;;;;;;5339850;26;20349;-67
2024/04/25 12:56:05;;;;;;;203.82;67.43;;;;;;;;;;5338722;26;20340;-67
2024/04/25 12:58:40;;;;;;;205.25;68.45;;;;;;;;;;5346326;26;20340;-67
2024/04/25 13:01:08;;;;;;;204.73;70.03;;;;;;;;;;5348136;26;20340;-67
2024/04/25 13:03:37;;;;;;;205.70;72.00;;;;;;;;;;5344322;26;20344;-67
2024/04/25 13:06:06;;;;;;;205.35;69.95;;;;;;;;;;5344972;26;20341;-66
2024/04/25 13:08:36;;;;;;;206.57;72.82;;;;;;;;;;5348474;26;20340;-67
2024/04/25 13:11:07;;;;;;;206.68;75.22;;;;;;;;;;5345230;26;20341;-67
2024/04/25 13:13:36;;;;;;;204.88;71.60;;;;;;;;;;5339995;26;20333;-67
2024/04/25 13:16:04;;;;;;;205.73;74.22;;;;;;;;;;5344707;26;20341;-67
2024/04/25 13:18:33;;;;;;;205.70;73.18;;;;;;;;;;5345676;26;20348;-67
2024/04/25 13:21:03;;;;;;;205.45;73.65;;;;;;;;;;5349785;26;20370;-67
2024/04/25 13:23:31;;;;;;;206.65;74.32;;;;;;;;;;5343946;26;20699;-67
2024/04/25 13:26:00;;;;;;;203.70;72.10;;;;;;;;;;5344685;26;20349;-67
2024/04/25 13:28:33;;;;;;;206.40;73.70;;;;;;;;;;5344702;26;20447;-67
2024/04/25 13:31:01;;;;;;;205.32;72.07;;;;;;;;;;5342981;26;20890;-67
2024/04/25 13:33:30;;;;;;;207.10;75.35;;;;;;;;;;5343476;26;20419;-67
2024/04/25 13:35:59;;;;;;;206.65;75.10;;;;;;;;;;5344931;26;20329;-67
2024/04/25 13:38:27;;;;;;;203.75;71.28;;;;;;;;;;5337848;26;20341;-67
2024/04/25 13:40:56;;;;;;;205.25;73.75;;;;;;;;;;5338117;26;20340;-67
2024/04/25 13:43:25;;;;;;;206.50;74.35;;;;;;;;;;5344336;26;20846;-67
2024/04/25 13:45:56;;;;;;;207.05;76.20;;;;;;;;;;5344407;26;20329;-67
2024/04/25 13:48:25;;;;;;;204.63;72.68;;;;;;;;;;5344968;26;20371;-67
2024/04/25 13:50:53;;;;;;;204.03;69.97;;;;;;;;;;5344328;26;20758;-67
2024/04/25 13:53:22;;;;;;;203.20;67.00;;;;;;;;;;5343765;26;20959;-67
2024/04/25 13:55:51;;;;;;;202.57;67.07;;;;;;;;;;5344126;26;20348;-67
2024/04/25 13:58:19;;;;;;;204.85;71.43;;;;;;;;;;5351432;26;20326;-67
2024/04/25 14:00:50;;;;;;;203.70;70.57;;;;;;;;;;5344268;26;20336;-67
2024/04/25 14:03:21;;;;;;;206.02;71.70;;;;;;;;;;5344055;26;20396;-67
2024/04/25 14:05:50;;;;;;;205.40;72.80;;;;;;;;;;5342539;26;20838;-67
2024/04/25 14:08:19;;;;;;;205.48;73.72;;;;;;;;;;5343977;26;20341;-67
2024/04/25 14:10:49;;;;;;;205.43;74.28;;;;;;;;;;5343991;26;20410;-67
2024/04/25 14:13:19;;;;;;;204.07;72.72;;;;;;;;;;5343894;26;20922;-67
2024/04/25 14:15:47;;;;;;;205.15;72.07;;;;;;;;;;5343687;26;21100;-67
2024/04/25 14:18:16;;;;;;;203.95;71.47;;;;;;;;;;5350864;26;20358;-67
2024/04/25 14:20:47;;;;;;;205.75;72.40;;;;;;;;;;5343853;26;20716;-67